sensor_id;sensor_type;location;lat;lon;timestamp;P1;durP1;ratioP1;P2;durP2;ratioP2
53145;SDS011;39042;53.150;5.898;2023-06-10T00:01:58;8.87;;;5.60;;
53145;SDS011;39042;53.150;5.898;2023-06-10T00:04:25;10.80;;;6.10;;
53145;SDS011;39042;53.150;5.898;2023-06-10T00:06:52;15.63;;;5.75;;
53145;SDS011;39042;53.150;5.898;2023-06-10T00:11:46;13.07;;;6.15;;
53145;SDS011;39042;53.150;5.898;2023-06-10T00:14:12;12.27;;;6.25;;
53145;SDS011;39042;53.150;5.898;2023-06-10T00:16:38;14.68;;;6.28;;
53145;SDS011;39042;53.150;5.898;2023-06-10T00:19:04;11.30;;;6.00;;
53145;SDS011;39042;53.150;5.898;2023-06-10T00:21:31;12.10;;;5.70;;
53145;SDS011;39042;53.150;5.898;2023-06-10T00:24:11;12.75;;;6.78;;
53145;SDS011;39042;53.150;5.898;2023-06-10T00:26:40;9.20;;;5.55;;
53145;SDS011;39042;53.150;5.898;2023-06-10T00:29:07;11.93;;;5.60;;
53145;SDS011;39042;53.150;5.898;2023-06-10T00:31:37;12.45;;;5.38;;
53145;SDS011;39042;53.150;5.898;2023-06-10T00:34:06;11.13;;;5.60;;
53145;SDS011;39042;53.150;5.898;2023-06-10T00:36:32;10.77;;;5.47;;
53145;SDS011;39042;53.150;5.898;2023-06-10T00:38:59;9.25;;;5.72;;
53145;SDS011;39042;53.150;5.898;2023-06-10T00:41:25;11.63;;;5.97;;
53145;SDS011;39042;53.150;5.898;2023-06-10T00:46:17;12.75;;;5.93;;
53145;SDS011;39042;53.150;5.898;2023-06-10T00:48:44;7.97;;;4.65;;
53145;SDS011;39042;53.150;5.898;2023-06-10T00:51:10;11.20;;;5.30;;
53145;SDS011;39042;53.150;5.898;2023-06-10T00:53:37;10.25;;;5.30;;
53145;SDS011;39042;53.150;5.898;2023-06-10T00:56:06;15.10;;;5.57;;
53145;SDS011;39042;53.150;5.898;2023-06-10T00:58:34;9.55;;;5.00;;
53145;SDS011;39042;53.150;5.898;2023-06-10T01:01:01;8.60;;;5.15;;
53145;SDS011;39042;53.150;5.898;2023-06-10T01:03:27;12.45;;;6.05;;
53145;SDS011;39042;53.150;5.898;2023-06-10T01:14:27;12.55;;;5.05;;
53145;SDS011;39042;53.150;5.898;2023-06-10T01:16:53;8.65;;;4.90;;
53145;SDS011;39042;53.150;5.898;2023-06-10T01:19:21;10.98;;;6.28;;
53145;SDS011;39042;53.150;5.898;2023-06-10T01:21:50;10.25;;;5.45;;
53145;SDS011;39042;53.150;5.898;2023-06-10T01:24:17;11.48;;;5.50;;
53145;SDS011;39042;53.150;5.898;2023-06-10T01:26:44;9.32;;;5.35;;
53145;SDS011;39042;53.150;5.898;2023-06-10T01:29:18;11.30;;;6.15;;
53145;SDS011;39042;53.150;5.898;2023-06-10T01:31:49;10.75;;;5.75;;
53145;SDS011;39042;53.150;5.898;2023-06-10T01:34:22;9.35;;;4.93;;
53145;SDS011;39042;53.150;5.898;2023-06-10T01:36:50;13.57;;;5.88;;
53145;SDS011;39042;53.150;5.898;2023-06-10T01:39:16;10.43;;;5.80;;
53145;SDS011;39042;53.150;5.898;2023-06-10T01:41:45;10.02;;;5.63;;
53145;SDS011;39042;53.150;5.898;2023-06-10T01:44:17;11.27;;;6.13;;
53145;SDS011;39042;53.150;5.898;2023-06-10T01:46:45;13.27;;;6.07;;
53145;SDS011;39042;53.150;5.898;2023-06-10T01:49:10;10.20;;;5.53;;
53145;SDS011;39042;53.150;5.898;2023-06-10T01:51:36;14.63;;;5.43;;
53145;SDS011;39042;53.150;5.898;2023-06-10T01:54:02;8.30;;;5.17;;
53145;SDS011;39042;53.150;5.898;2023-06-10T01:56:28;12.82;;;5.55;;
53145;SDS011;39042;53.150;5.898;2023-06-10T01:58:54;8.47;;;5.10;;
53145;SDS011;39042;53.150;5.898;2023-06-10T02:01:24;13.75;;;6.45;;
53145;SDS011;39042;53.150;5.898;2023-06-10T02:03:51;9.10;;;5.90;;
53145;SDS011;39042;53.150;5.898;2023-06-10T02:06:17;9.07;;;5.85;;
53145;SDS011;39042;53.150;5.898;2023-06-10T02:08:42;9.98;;;5.57;;
53145;SDS011;39042;53.150;5.898;2023-06-10T02:11:08;11.80;;;6.07;;
53145;SDS011;39042;53.150;5.898;2023-06-10T02:13:34;10.07;;;5.80;;
53145;SDS011;39042;53.150;5.898;2023-06-10T02:16:00;11.07;;;5.53;;
53145;SDS011;39042;53.150;5.898;2023-06-10T02:18:28;8.48;;;5.30;;
53145;SDS011;39042;53.150;5.898;2023-06-10T02:20:54;10.95;;;5.63;;
53145;SDS011;39042;53.150;5.898;2023-06-10T02:23:21;12.75;;;6.32;;
53145;SDS011;39042;53.150;5.898;2023-06-10T02:25:47;11.05;;;5.30;;
53145;SDS011;39042;53.150;5.898;2023-06-10T02:28:13;10.77;;;5.60;;
53145;SDS011;39042;53.150;5.898;2023-06-10T02:30:40;10.20;;;5.53;;
53145;SDS011;39042;53.150;5.898;2023-06-10T02:33:07;11.05;;;5.68;;
53145;SDS011;39042;53.150;5.898;2023-06-10T02:35:40;14.00;;;5.50;;
53145;SDS011;39042;53.150;5.898;2023-06-10T02:38:06;13.38;;;5.82;;
53145;SDS011;39042;53.150;5.898;2023-06-10T02:40:33;9.85;;;5.25;;
53145;SDS011;39042;53.150;5.898;2023-06-10T02:43:00;8.82;;;5.32;;
53145;SDS011;39042;53.150;5.898;2023-06-10T02:45:25;10.02;;;4.53;;
53145;SDS011;39042;53.150;5.898;2023-06-10T02:47:52;9.27;;;5.97;;
53145;SDS011;39042;53.150;5.898;2023-06-10T02:50:18;11.57;;;5.55;;
53145;SDS011;39042;53.150;5.898;2023-06-10T02:53:01;10.18;;;4.80;;
53145;SDS011;39042;53.150;5.898;2023-06-10T02:55:28;10.57;;;5.18;;
53145;SDS011;39042;53.150;5.898;2023-06-10T02:57:59;9.15;;;5.13;;
53145;SDS011;39042;53.150;5.898;2023-06-10T03:00:26;12.45;;;5.30;;
53145;SDS011;39042;53.150;5.898;2023-06-10T03:02:52;11.18;;;5.20;;
53145;SDS011;39042;53.150;5.898;2023-06-10T03:05:26;11.05;;;5.60;;
53145;SDS011;39042;53.150;5.898;2023-06-10T03:07:54;10.13;;;5.00;;
53145;SDS011;39042;53.150;5.898;2023-06-10T03:10:21;9.77;;;5.25;;
53145;SDS011;39042;53.150;5.898;2023-06-10T03:12:47;13.32;;;5.47;;
53145;SDS011;39042;53.150;5.898;2023-06-10T03:15:13;8.23;;;5.30;;
53145;SDS011;39042;53.150;5.898;2023-06-10T03:17:41;7.60;;;4.90;;
53145;SDS011;39042;53.150;5.898;2023-06-10T03:20:07;10.77;;;4.93;;
53145;SDS011;39042;53.150;5.898;2023-06-10T03:22:36;12.80;;;5.40;;
53145;SDS011;39042;53.150;5.898;2023-06-10T03:25:07;10.23;;;4.93;;
53145;SDS011;39042;53.150;5.898;2023-06-10T03:27:41;8.20;;;4.63;;
53145;SDS011;39042;53.150;5.898;2023-06-10T03:30:09;9.70;;;5.25;;
53145;SDS011;39042;53.150;5.898;2023-06-10T03:32:37;10.32;;;5.55;;
53145;SDS011;39042;53.150;5.898;2023-06-10T03:35:05;10.15;;;5.30;;
53145;SDS011;39042;53.150;5.898;2023-06-10T03:37:32;10.93;;;4.97;;
53145;SDS011;39042;53.150;5.898;2023-06-10T03:39:58;9.57;;;4.97;;
53145;SDS011;39042;53.150;5.898;2023-06-10T03:42:25;9.35;;;5.25;;
53145;SDS011;39042;53.150;5.898;2023-06-10T03:44:51;10.30;;;4.72;;
53145;SDS011;39042;53.150;5.898;2023-06-10T03:47:17;9.88;;;4.75;;
53145;SDS011;39042;53.150;5.898;2023-06-10T03:49:43;10.75;;;4.60;;
53145;SDS011;39042;53.150;5.898;2023-06-10T03:52:10;10.73;;;4.57;;
53145;SDS011;39042;53.150;5.898;2023-06-10T03:54:36;9.20;;;4.22;;
53145;SDS011;39042;53.150;5.898;2023-06-10T03:57:02;8.55;;;4.18;;
53145;SDS011;39042;53.150;5.898;2023-06-10T03:59:29;7.03;;;4.45;;
53145;SDS011;39042;53.150;5.898;2023-06-10T04:01:55;8.43;;;4.40;;
53145;SDS011;39042;53.150;5.898;2023-06-10T04:04:22;8.80;;;4.35;;
53145;SDS011;39042;53.150;5.898;2023-06-10T04:06:48;8.68;;;5.15;;
53145;SDS011;39042;53.150;5.898;2023-06-10T04:09:15;9.00;;;4.28;;
53145;SDS011;39042;53.150;5.898;2023-06-10T04:14:07;7.18;;;3.80;;
53145;SDS011;39042;53.150;5.898;2023-06-10T04:16:34;12.65;;;4.55;;
53145;SDS011;39042;53.150;5.898;2023-06-10T04:19:01;9.13;;;4.50;;
53145;SDS011;39042;53.150;5.898;2023-06-10T04:21:27;7.47;;;4.25;;
53145;SDS011;39042;53.150;5.898;2023-06-10T04:23:53;7.90;;;3.90;;
53145;SDS011;39042;53.150;5.898;2023-06-10T04:26:19;8.27;;;4.13;;
53145;SDS011;39042;53.150;5.898;2023-06-10T04:28:45;8.02;;;4.30;;
53145;SDS011;39042;53.150;5.898;2023-06-10T04:31:12;6.68;;;4.10;;
53145;SDS011;39042;53.150;5.898;2023-06-10T04:33:38;8.88;;;4.10;;
53145;SDS011;39042;53.150;5.898;2023-06-10T04:36:05;8.18;;;4.03;;
53145;SDS011;39042;53.150;5.898;2023-06-10T04:38:32;14.48;;;4.88;;
53145;SDS011;39042;53.150;5.898;2023-06-10T04:40:59;9.73;;;3.80;;
53145;SDS011;39042;53.150;5.898;2023-06-10T04:43:28;7.95;;;4.32;;
53145;SDS011;39042;53.150;5.898;2023-06-10T04:45:57;10.52;;;4.18;;
53145;SDS011;39042;53.150;5.898;2023-06-10T04:48:23;5.47;;;3.45;;
53145;SDS011;39042;53.150;5.898;2023-06-10T04:50:50;9.05;;;4.03;;
53145;SDS011;39042;53.150;5.898;2023-06-10T04:53:17;11.05;;;4.20;;
53145;SDS011;39042;53.150;5.898;2023-06-10T04:55:45;9.02;;;3.92;;
53145;SDS011;39042;53.150;5.898;2023-06-10T04:58:11;9.98;;;4.63;;
53145;SDS011;39042;53.150;5.898;2023-06-10T05:00:37;8.15;;;3.90;;
53145;SDS011;39042;53.150;5.898;2023-06-10T05:03:03;9.88;;;3.80;;
53145;SDS011;39042;53.150;5.898;2023-06-10T05:05:29;8.93;;;4.73;;
53145;SDS011;39042;53.150;5.898;2023-06-10T05:07:55;7.85;;;4.00;;
53145;SDS011;39042;53.150;5.898;2023-06-10T05:10:20;8.55;;;4.45;;
53145;SDS011;39042;53.150;5.898;2023-06-10T05:12:46;11.50;;;4.47;;
53145;SDS011;39042;53.150;5.898;2023-06-10T05:15:12;8.40;;;3.83;;
53145;SDS011;39042;53.150;5.898;2023-06-10T05:17:38;10.73;;;4.97;;
53145;SDS011;39042;53.150;5.898;2023-06-10T05:20:04;9.10;;;4.03;;
53145;SDS011;39042;53.150;5.898;2023-06-10T05:22:31;8.10;;;3.97;;
53145;SDS011;39042;53.150;5.898;2023-06-10T05:24:57;9.88;;;4.05;;
53145;SDS011;39042;53.150;5.898;2023-06-10T05:27:23;10.30;;;4.60;;
53145;SDS011;39042;53.150;5.898;2023-06-10T05:29:49;9.57;;;3.88;;
53145;SDS011;39042;53.150;5.898;2023-06-10T05:32:17;10.32;;;4.65;;
53145;SDS011;39042;53.150;5.898;2023-06-10T05:34:43;12.15;;;4.32;;
53145;SDS011;39042;53.150;5.898;2023-06-10T05:37:09;10.43;;;4.22;;
53145;SDS011;39042;53.150;5.898;2023-06-10T05:39:35;10.52;;;4.28;;
53145;SDS011;39042;53.150;5.898;2023-06-10T05:42:03;13.10;;;4.50;;
53145;SDS011;39042;53.150;5.898;2023-06-10T05:44:32;11.63;;;4.75;;
53145;SDS011;39042;53.150;5.898;2023-06-10T05:46:57;13.65;;;4.72;;
53145;SDS011;39042;53.150;5.898;2023-06-10T05:49:23;9.95;;;4.60;;
53145;SDS011;39042;53.150;5.898;2023-06-10T05:51:49;8.30;;;4.80;;
53145;SDS011;39042;53.150;5.898;2023-06-10T05:54:17;8.70;;;4.55;;
53145;SDS011;39042;53.150;5.898;2023-06-10T05:56:43;11.35;;;4.32;;
53145;SDS011;39042;53.150;5.898;2023-06-10T05:59:09;8.48;;;3.85;;
53145;SDS011;39042;53.150;5.898;2023-06-10T06:01:35;10.82;;;4.45;;
53145;SDS011;39042;53.150;5.898;2023-06-10T06:04:01;11.68;;;4.30;;
53145;SDS011;39042;53.150;5.898;2023-06-10T06:06:27;8.35;;;4.47;;
53145;SDS011;39042;53.150;5.898;2023-06-10T06:08:53;11.40;;;4.75;;
53145;SDS011;39042;53.150;5.898;2023-06-10T06:11:19;9.02;;;4.78;;
53145;SDS011;39042;53.150;5.898;2023-06-10T06:13:45;8.68;;;4.00;;
53145;SDS011;39042;53.150;5.898;2023-06-10T06:16:13;8.07;;;4.40;;
53145;SDS011;39042;53.150;5.898;2023-06-10T06:18:39;7.07;;;3.75;;
53145;SDS011;39042;53.150;5.898;2023-06-10T06:21:05;8.23;;;4.22;;
53145;SDS011;39042;53.150;5.898;2023-06-10T06:23:30;6.30;;;4.10;;
53145;SDS011;39042;53.150;5.898;2023-06-10T06:25:56;10.02;;;3.90;;
53145;SDS011;39042;53.150;5.898;2023-06-10T06:28:22;9.70;;;4.32;;
53145;SDS011;39042;53.150;5.898;2023-06-10T06:30:48;9.70;;;3.95;;
53145;SDS011;39042;53.150;5.898;2023-06-10T06:33:14;10.73;;;3.90;;
53145;SDS011;39042;53.150;5.898;2023-06-10T06:35:40;6.28;;;4.10;;
53145;SDS011;39042;53.150;5.898;2023-06-10T06:38:06;9.00;;;4.30;;
53145;SDS011;39042;53.150;5.898;2023-06-10T06:40:34;10.68;;;3.95;;
53145;SDS011;39042;53.150;5.898;2023-06-10T06:43:00;9.98;;;4.55;;
53145;SDS011;39042;53.150;5.898;2023-06-10T06:45:41;10.27;;;4.18;;
53145;SDS011;39042;53.150;5.898;2023-06-10T06:48:07;10.60;;;4.32;;
53145;SDS011;39042;53.150;5.898;2023-06-10T06:50:33;9.35;;;3.85;;
53145;SDS011;39042;53.150;5.898;2023-06-10T06:52:59;7.00;;;3.35;;
53145;SDS011;39042;53.150;5.898;2023-06-10T06:55:25;7.07;;;3.50;;
53145;SDS011;39042;53.150;5.898;2023-06-10T06:57:51;8.98;;;3.83;;
53145;SDS011;39042;53.150;5.898;2023-06-10T07:00:16;9.93;;;4.28;;
53145;SDS011;39042;53.150;5.898;2023-06-10T07:02:43;10.23;;;4.13;;
53145;SDS011;39042;53.150;5.898;2023-06-10T07:05:08;9.23;;;4.15;;
53145;SDS011;39042;53.150;5.898;2023-06-10T07:07:34;7.88;;;4.22;;
53145;SDS011;39042;53.150;5.898;2023-06-10T07:10:00;8.60;;;4.13;;
53145;SDS011;39042;53.150;5.898;2023-06-10T07:12:26;6.75;;;3.90;;
53145;SDS011;39042;53.150;5.898;2023-06-10T07:14:52;10.25;;;4.63;;
53145;SDS011;39042;53.150;5.898;2023-06-10T07:17:18;9.27;;;4.20;;
53145;SDS011;39042;53.150;5.898;2023-06-10T07:19:44;9.35;;;4.05;;
53145;SDS011;39042;53.150;5.898;2023-06-10T07:22:11;7.57;;;3.95;;
53145;SDS011;39042;53.150;5.898;2023-06-10T07:24:37;8.43;;;3.70;;
53145;SDS011;39042;53.150;5.898;2023-06-10T07:27:02;8.18;;;2.97;;
53145;SDS011;39042;53.150;5.898;2023-06-10T07:29:29;7.82;;;3.70;;
53145;SDS011;39042;53.150;5.898;2023-06-10T07:31:54;7.90;;;3.33;;
53145;SDS011;39042;53.150;5.898;2023-06-10T07:34:20;10.23;;;3.67;;
53145;SDS011;39042;53.150;5.898;2023-06-10T07:36:46;7.43;;;3.40;;
53145;SDS011;39042;53.150;5.898;2023-06-10T07:39:12;9.30;;;3.58;;
53145;SDS011;39042;53.150;5.898;2023-06-10T07:41:38;6.32;;;3.30;;
53145;SDS011;39042;53.150;5.898;2023-06-10T07:44:03;7.65;;;3.85;;
53145;SDS011;39042;53.150;5.898;2023-06-10T07:46:30;9.15;;;4.25;;
53145;SDS011;39042;53.150;5.898;2023-06-10T07:48:55;6.47;;;3.42;;
53145;SDS011;39042;53.150;5.898;2023-06-10T07:51:21;7.57;;;3.75;;
53145;SDS011;39042;53.150;5.898;2023-06-10T07:53:47;9.85;;;3.65;;
53145;SDS011;39042;53.150;5.898;2023-06-10T07:56:13;8.20;;;3.85;;
53145;SDS011;39042;53.150;5.898;2023-06-10T07:58:39;10.48;;;5.03;;
53145;SDS011;39042;53.150;5.898;2023-06-10T08:01:05;10.38;;;4.82;;
53145;SDS011;39042;53.150;5.898;2023-06-10T08:05:57;10.40;;;4.30;;
53145;SDS011;39042;53.150;5.898;2023-06-10T08:08:23;8.73;;;3.83;;
53145;SDS011;39042;53.150;5.898;2023-06-10T08:10:49;11.48;;;4.65;;
53145;SDS011;39042;53.150;5.898;2023-06-10T08:13:16;6.65;;;3.40;;
53145;SDS011;39042;53.150;5.898;2023-06-10T08:15:42;8.52;;;4.00;;
53145;SDS011;39042;53.150;5.898;2023-06-10T08:18:07;9.13;;;3.65;;
53145;SDS011;39042;53.150;5.898;2023-06-10T08:20:33;7.15;;;3.80;;
53145;SDS011;39042;53.150;5.898;2023-06-10T08:22:59;5.97;;;3.55;;
53145;SDS011;39042;53.150;5.898;2023-06-10T08:25:25;8.40;;;3.22;;
53145;SDS011;39042;53.150;5.898;2023-06-10T08:27:51;7.22;;;3.40;;
53145;SDS011;39042;53.150;5.898;2023-06-10T08:30:17;8.00;;;3.25;;
53145;SDS011;39042;53.150;5.898;2023-06-10T08:32:43;7.15;;;2.78;;
53145;SDS011;39042;53.150;5.898;2023-06-10T08:35:09;7.78;;;3.65;;
53145;SDS011;39042;53.150;5.898;2023-06-10T08:37:35;6.15;;;2.90;;
53145;SDS011;39042;53.150;5.898;2023-06-10T08:40:01;5.22;;;2.92;;
53145;SDS011;39042;53.150;5.898;2023-06-10T08:45:02;6.70;;;3.13;;
53145;SDS011;39042;53.150;5.898;2023-06-10T08:47:29;8.75;;;3.47;;
53145;SDS011;39042;53.150;5.898;2023-06-10T08:50:02;9.23;;;3.08;;
53145;SDS011;39042;53.150;5.898;2023-06-10T08:52:34;5.80;;;3.10;;
53145;SDS011;39042;53.150;5.898;2023-06-10T08:55:04;7.40;;;3.00;;
53145;SDS011;39042;53.150;5.898;2023-06-10T08:57:40;10.05;;;3.67;;
53145;SDS011;39042;53.150;5.898;2023-06-10T09:00:10;6.80;;;2.95;;
53145;SDS011;39042;53.150;5.898;2023-06-10T09:02:38;6.13;;;2.90;;
53145;SDS011;39042;53.150;5.898;2023-06-10T09:07:30;7.15;;;3.20;;
53145;SDS011;39042;53.150;5.898;2023-06-10T09:09:56;5.07;;;3.25;;
53145;SDS011;39042;53.150;5.898;2023-06-10T09:12:24;7.18;;;3.00;;
53145;SDS011;39042;53.150;5.898;2023-06-10T09:14:50;6.43;;;3.30;;
53145;SDS011;39042;53.150;5.898;2023-06-10T09:17:16;7.60;;;3.55;;
53145;SDS011;39042;53.150;5.898;2023-06-10T09:19:42;6.68;;;3.00;;
53145;SDS011;39042;53.150;5.898;2023-06-10T09:22:10;6.10;;;3.05;;
53145;SDS011;39042;53.150;5.898;2023-06-10T09:24:36;6.38;;;3.28;;
53145;SDS011;39042;53.150;5.898;2023-06-10T09:27:04;7.25;;;3.22;;
53145;SDS011;39042;53.150;5.898;2023-06-10T09:29:32;5.00;;;2.90;;
53145;SDS011;39042;53.150;5.898;2023-06-10T09:32:17;6.97;;;2.85;;
53145;SDS011;39042;53.150;5.898;2023-06-10T09:34:44;6.28;;;3.03;;
53145;SDS011;39042;53.150;5.898;2023-06-10T09:37:11;7.43;;;3.13;;
53145;SDS011;39042;53.150;5.898;2023-06-10T09:39:39;5.25;;;2.85;;
53145;SDS011;39042;53.150;5.898;2023-06-10T09:42:15;5.97;;;2.80;;
53145;SDS011;39042;53.150;5.898;2023-06-10T09:44:42;7.40;;;2.97;;
53145;SDS011;39042;53.150;5.898;2023-06-10T09:47:19;5.50;;;3.47;;
53145;SDS011;39042;53.150;5.898;2023-06-10T09:49:49;5.53;;;2.90;;
53145;SDS011;39042;53.150;5.898;2023-06-10T09:52:22;9.82;;;3.83;;
53145;SDS011;39042;53.150;5.898;2023-06-10T09:54:50;6.75;;;3.35;;
53145;SDS011;39042;53.150;5.898;2023-06-10T09:57:20;9.50;;;2.75;;
53145;SDS011;39042;53.150;5.898;2023-06-10T09:59:46;6.78;;;2.88;;
53145;SDS011;39042;53.150;5.898;2023-06-10T10:02:16;6.68;;;2.80;;
53145;SDS011;39042;53.150;5.898;2023-06-10T10:04:42;9.10;;;3.33;;
53145;SDS011;39042;53.150;5.898;2023-06-10T10:07:11;5.03;;;2.92;;
53145;SDS011;39042;53.150;5.898;2023-06-10T10:09:38;9.10;;;3.10;;
53145;SDS011;39042;53.150;5.898;2023-06-10T10:12:13;4.10;;;2.50;;
53145;SDS011;39042;53.150;5.898;2023-06-10T10:14:46;5.82;;;2.60;;
53145;SDS011;39042;53.150;5.898;2023-06-10T10:17:13;6.80;;;2.78;;
53145;SDS011;39042;53.150;5.898;2023-06-10T10:19:46;8.70;;;3.22;;
53145;SDS011;39042;53.150;5.898;2023-06-10T10:22:15;4.50;;;3.03;;
53145;SDS011;39042;53.150;5.898;2023-06-10T10:24:49;3.22;;;2.38;;
53145;SDS011;39042;53.150;5.898;2023-06-10T10:30:17;8.07;;;3.05;;
53145;SDS011;39042;53.150;5.898;2023-06-10T10:32:52;6.50;;;3.15;;
53145;SDS011;39042;53.150;5.898;2023-06-10T10:35:29;5.38;;;3.10;;
53145;SDS011;39042;53.150;5.898;2023-06-10T10:37:58;6.50;;;3.25;;
53145;SDS011;39042;53.150;5.898;2023-06-10T10:40:24;5.50;;;2.72;;
53145;SDS011;39042;53.150;5.898;2023-06-10T10:42:55;5.03;;;2.13;;
53145;SDS011;39042;53.150;5.898;2023-06-10T10:45:21;6.10;;;3.00;;
53145;SDS011;39042;53.150;5.898;2023-06-10T10:47:54;5.90;;;2.92;;
53145;SDS011;39042;53.150;5.898;2023-06-10T10:50:22;4.90;;;2.47;;
53145;SDS011;39042;53.150;5.898;2023-06-10T10:55:30;4.78;;;2.55;;
53145;SDS011;39042;53.150;5.898;2023-06-10T10:58:03;8.68;;;2.65;;
53145;SDS011;39042;53.150;5.898;2023-06-10T11:00:34;4.72;;;2.50;;
53145;SDS011;39042;53.150;5.898;2023-06-10T11:03:05;7.07;;;2.28;;
53145;SDS011;39042;53.150;5.898;2023-06-10T11:05:35;10.27;;;3.10;;
53145;SDS011;39042;53.150;5.898;2023-06-10T11:08:08;5.50;;;2.50;;
53145;SDS011;39042;53.150;5.898;2023-06-10T11:10:38;6.35;;;3.00;;
53145;SDS011;39042;53.150;5.898;2023-06-10T11:13:09;5.03;;;2.78;;
53145;SDS011;39042;53.150;5.898;2023-06-10T11:15:39;6.20;;;2.45;;
53145;SDS011;39042;53.150;5.898;2023-06-10T11:18:11;5.50;;;2.55;;
53145;SDS011;39042;53.150;5.898;2023-06-10T11:21:11;4.72;;;2.42;;
53145;SDS011;39042;53.150;5.898;2023-06-10T11:31:19;5.60;;;2.13;;
53145;SDS011;39042;53.150;5.898;2023-06-10T11:36:20;4.95;;;2.83;;
53145;SDS011;39042;53.150;5.898;2023-06-10T11:38:46;3.30;;;1.98;;
53145;SDS011;39042;53.150;5.898;2023-06-10T11:41:16;3.40;;;1.85;;
53145;SDS011;39042;53.150;5.898;2023-06-10T11:43:43;2.97;;;1.60;;
53145;SDS011;39042;53.150;5.898;2023-06-10T11:46:10;4.70;;;2.20;;
53145;SDS011;39042;53.150;5.898;2023-06-10T11:48:36;3.88;;;2.20;;
53145;SDS011;39042;53.150;5.898;2023-06-10T11:51:08;5.57;;;2.40;;
53145;SDS011;39042;53.150;5.898;2023-06-10T11:53:35;3.15;;;1.85;;
53145;SDS011;39042;53.150;5.898;2023-06-10T11:56:00;3.55;;;1.60;;
53145;SDS011;39042;53.150;5.898;2023-06-10T11:58:26;3.15;;;1.77;;
53145;SDS011;39042;53.150;5.898;2023-06-10T12:00:53;3.45;;;2.03;;
53145;SDS011;39042;53.150;5.898;2023-06-10T12:03:21;3.03;;;1.90;;
53145;SDS011;39042;53.150;5.898;2023-06-10T12:06:01;4.68;;;1.95;;
53145;SDS011;39042;53.150;5.898;2023-06-10T12:08:28;4.75;;;2.15;;
53145;SDS011;39042;53.150;5.898;2023-06-10T12:13:21;4.45;;;2.17;;
53145;SDS011;39042;53.150;5.898;2023-06-10T12:15:48;4.00;;;1.85;;
53145;SDS011;39042;53.150;5.898;2023-06-10T12:18:17;6.15;;;1.63;;
53145;SDS011;39042;53.150;5.898;2023-06-10T12:20:44;5.03;;;1.83;;
53145;SDS011;39042;53.150;5.898;2023-06-10T12:23:11;3.78;;;1.80;;
53145;SDS011;39042;53.150;5.898;2023-06-10T12:25:38;5.10;;;1.60;;
53145;SDS011;39042;53.150;5.898;2023-06-10T12:28:04;6.50;;;1.73;;
53145;SDS011;39042;53.150;5.898;2023-06-10T12:30:34;3.47;;;2.08;;
53145;SDS011;39042;53.150;5.898;2023-06-10T12:33:00;3.55;;;1.67;;
53145;SDS011;39042;53.150;5.898;2023-06-10T12:35:26;5.25;;;2.17;;
53145;SDS011;39042;53.150;5.898;2023-06-10T12:38:00;3.25;;;1.80;;
53145;SDS011;39042;53.150;5.898;2023-06-10T12:40:32;5.07;;;2.00;;
53145;SDS011;39042;53.150;5.898;2023-06-10T12:43:00;4.65;;;2.00;;
53145;SDS011;39042;53.150;5.898;2023-06-10T12:45:27;4.45;;;1.90;;
53145;SDS011;39042;53.150;5.898;2023-06-10T12:48:04;5.22;;;1.83;;
53145;SDS011;39042;53.150;5.898;2023-06-10T12:50:32;4.88;;;2.03;;
53145;SDS011;39042;53.150;5.898;2023-06-10T12:52:59;6.03;;;2.22;;
53145;SDS011;39042;53.150;5.898;2023-06-10T12:55:25;7.07;;;2.78;;
53145;SDS011;39042;53.150;5.898;2023-06-10T12:57:51;6.65;;;3.38;;
53145;SDS011;39042;53.150;5.898;2023-06-10T13:00:17;7.97;;;3.40;;
53145;SDS011;39042;53.150;5.898;2023-06-10T13:02:43;8.43;;;4.10;;
53145;SDS011;39042;53.150;5.898;2023-06-10T13:05:09;7.43;;;3.75;;
53145;SDS011;39042;53.150;5.898;2023-06-10T13:07:35;8.02;;;3.42;;
53145;SDS011;39042;53.150;5.898;2023-06-10T13:10:01;9.35;;;4.15;;
53145;SDS011;39042;53.150;5.898;2023-06-10T13:12:28;11.18;;;4.13;;
53145;SDS011;39042;53.150;5.898;2023-06-10T13:14:54;9.68;;;3.83;;
53145;SDS011;39042;53.150;5.898;2023-06-10T13:17:20;8.48;;;4.57;;
53145;SDS011;39042;53.150;5.898;2023-06-10T13:19:46;8.65;;;4.18;;
53145;SDS011;39042;53.150;5.898;2023-06-10T13:22:13;7.53;;;4.10;;
53145;SDS011;39042;53.150;5.898;2023-06-10T13:24:39;7.95;;;3.88;;
53145;SDS011;39042;53.150;5.898;2023-06-10T13:27:06;10.80;;;3.80;;
53145;SDS011;39042;53.150;5.898;2023-06-10T13:31:58;8.15;;;4.22;;
53145;SDS011;39042;53.150;5.898;2023-06-10T13:34:23;7.43;;;4.30;;
53145;SDS011;39042;53.150;5.898;2023-06-10T13:36:49;10.80;;;4.63;;
53145;SDS011;39042;53.150;5.898;2023-06-10T13:39:15;13.30;;;4.70;;
53145;SDS011;39042;53.150;5.898;2023-06-10T13:41:41;7.82;;;4.45;;
53145;SDS011;39042;53.150;5.898;2023-06-10T13:44:07;13.15;;;4.45;;
53145;SDS011;39042;53.150;5.898;2023-06-10T13:46:33;10.05;;;3.88;;
53145;SDS011;39042;53.150;5.898;2023-06-10T13:48:58;11.80;;;3.95;;
53145;SDS011;39042;53.150;5.898;2023-06-10T13:51:24;13.55;;;4.63;;
53145;SDS011;39042;53.150;5.898;2023-06-10T13:53:50;12.00;;;4.00;;
53145;SDS011;39042;53.150;5.898;2023-06-10T13:56:17;8.30;;;3.25;;
53145;SDS011;39042;53.150;5.898;2023-06-10T13:58:43;9.00;;;4.00;;
53145;SDS011;39042;53.150;5.898;2023-06-10T14:01:10;8.50;;;4.60;;
53145;SDS011;39042;53.150;5.898;2023-06-10T14:03:36;7.43;;;3.47;;
53145;SDS011;39042;53.150;5.898;2023-06-10T14:06:02;7.40;;;3.65;;
53145;SDS011;39042;53.150;5.898;2023-06-10T14:08:28;9.25;;;3.63;;
53145;SDS011;39042;53.150;5.898;2023-06-10T14:10:55;9.70;;;3.92;;
53145;SDS011;39042;53.150;5.898;2023-06-10T14:13:20;6.60;;;3.80;;
53145;SDS011;39042;53.150;5.898;2023-06-10T14:15:46;6.90;;;3.35;;
53145;SDS011;39042;53.150;5.898;2023-06-10T14:18:12;9.30;;;3.38;;
53145;SDS011;39042;53.150;5.898;2023-06-10T14:20:38;6.25;;;2.90;;
53145;SDS011;39042;53.150;5.898;2023-06-10T14:23:03;7.80;;;2.72;;
53145;SDS011;39042;53.150;5.898;2023-06-10T14:25:29;6.32;;;3.25;;
53145;SDS011;39042;53.150;5.898;2023-06-10T14:27:55;7.72;;;3.10;;
53145;SDS011;39042;53.150;5.898;2023-06-10T14:30:21;4.68;;;2.70;;
53145;SDS011;39042;53.150;5.898;2023-06-10T14:32:47;8.88;;;3.22;;
53145;SDS011;39042;53.150;5.898;2023-06-10T14:35:13;7.78;;;3.08;;
53145;SDS011;39042;53.150;5.898;2023-06-10T14:37:38;10.55;;;3.47;;
53145;SDS011;39042;53.150;5.898;2023-06-10T14:40:04;8.98;;;3.22;;
53145;SDS011;39042;53.150;5.898;2023-06-10T14:42:31;9.52;;;3.40;;
53145;SDS011;39042;53.150;5.898;2023-06-10T14:45:00;12.85;;;4.15;;
53145;SDS011;39042;53.150;5.898;2023-06-10T14:47:26;8.40;;;3.05;;
53145;SDS011;39042;53.150;5.898;2023-06-10T14:49:51;6.47;;;3.13;;
53145;SDS011;39042;53.150;5.898;2023-06-10T14:52:17;6.72;;;3.30;;
53145;SDS011;39042;53.150;5.898;2023-06-10T14:54:43;5.45;;;3.30;;
53145;SDS011;39042;53.150;5.898;2023-06-10T14:57:09;5.47;;;3.05;;
53145;SDS011;39042;53.150;5.898;2023-06-10T14:59:35;6.70;;;2.88;;
53145;SDS011;39042;53.150;5.898;2023-06-10T15:02:01;8.73;;;2.95;;
53145;SDS011;39042;53.150;5.898;2023-06-10T15:04:27;8.88;;;3.70;;
53145;SDS011;39042;53.150;5.898;2023-06-10T15:06:53;7.22;;;3.42;;
53145;SDS011;39042;53.150;5.898;2023-06-10T15:09:19;9.80;;;2.97;;
53145;SDS011;39042;53.150;5.898;2023-06-10T15:11:45;9.80;;;2.97;;
53145;SDS011;39042;53.150;5.898;2023-06-10T15:14:11;10.00;;;3.50;;
53145;SDS011;39042;53.150;5.898;2023-06-10T15:16:37;6.68;;;2.65;;
53145;SDS011;39042;53.150;5.898;2023-06-10T15:19:03;6.93;;;3.10;;
53145;SDS011;39042;53.150;5.898;2023-06-10T15:21:31;8.05;;;2.78;;
53145;SDS011;39042;53.150;5.898;2023-06-10T15:23:57;7.40;;;2.88;;
53145;SDS011;39042;53.150;5.898;2023-06-10T15:26:23;7.03;;;2.90;;
53145;SDS011;39042;53.150;5.898;2023-06-10T15:28:49;5.13;;;2.70;;